Time;durP1;ratioP1;P1;durP2;ratioP2;P2;SDS_P1;SDS_P2;PMS_P1;PMS_P2;Temp;Humidity;BMP_temperature;BMP_pressure;BME280_temperature;BME280_humidity;BME280_pressure;Samples;Min_cycle;Max_cycle;Signal;HPM_P1;HPM_P2
2021/12/26 00:00:26;;;;;;;10.10;9.80;;;0.30;99.90;;;;;;5067654;22;20225;-77
2021/12/26 00:02:57;;;;;;;10.30;10.00;;;0.20;99.90;;;;;;5101757;28;20247;-78
2021/12/26 00:05:27;;;;;;;10.13;9.83;;;0.20;99.90;;;;;;5103309;28;20246;-78
2021/12/26 00:07:55;;;;;;;9.97;9.67;;;0.20;99.90;;;;;;5103272;28;20225;-78
2021/12/26 00:10:25;;;;;;;9.93;9.63;;;0.20;99.90;;;;;;5103042;28;20241;-78
2021/12/26 00:12:54;;;;;;;10.20;9.90;;;0.20;99.90;;;;;;5105088;28;20241;-76
2021/12/26 00:15:22;;;;;;;10.27;9.97;;;0.20;99.90;;;;;;5106462;28;20571;-77
2021/12/26 00:17:52;;;;;;;9.93;9.63;;;0.20;99.90;;;;;;5105317;28;20236;-77
2021/12/26 00:20:22;;;;;;;10.10;9.80;;;0.20;99.90;;;;;;5106020;28;20233;-78
2021/12/26 00:22:51;;;;;;;10.10;9.80;;;0.30;99.90;;;;;;5103464;28;20295;-78
2021/12/26 00:25:22;;;;;;;10.07;9.77;;;0.30;99.90;;;;;;5102838;28;20287;-77
2021/12/26 00:27:50;;;;;;;10.00;9.70;;;0.30;99.90;;;;;;5103132;28;20291;-79
2021/12/26 00:30:20;;;;;;;10.10;9.80;;;0.30;99.90;;;;;;5102490;28;20289;-78
2021/12/26 00:32:51;;;;;;;10.20;9.90;;;0.20;99.90;;;;;;5103028;28;20287;-78
2021/12/26 00:35:22;;;;;;;10.17;9.87;;;0.20;99.90;;;;;;5102062;28;20229;-78
2021/12/26 00:37:51;;;;;;;10.30;10.00;;;0.20;99.90;;;;;;5105864;28;20256;-78
2021/12/26 00:40:21;;;;;;;9.97;9.67;;;0.20;99.90;;;;;;5105355;28;20256;-79
2021/12/26 00:42:51;;;;;;;10.03;9.73;;;0.20;99.90;;;;;;5105621;28;20229;-78
2021/12/26 00:45:20;;;;;;;10.00;9.70;;;0.30;99.90;;;;;;5107580;28;20234;-78
2021/12/26 00:47:49;;;;;;;9.90;9.60;;;0.30;99.90;;;;;;5108855;28;20260;-78
2021/12/26 00:50:25;;;;;;;10.30;10.00;;;0.40;99.90;;;;;;5107437;28;20263;-78
2021/12/26 00:52:53;;;;;;;10.07;9.77;;;0.40;99.90;;;;;;5103519;28;20225;-79
2021/12/26 00:55:23;;;;;;;10.13;9.83;;;0.40;99.90;;;;;;5103022;28;20229;-79
2021/12/26 00:57:52;;;;;;;10.10;9.80;;;0.40;99.90;;;;;;5102655;28;20230;-78
2021/12/26 01:00:25;;;;;;;9.83;9.53;;;0.50;99.90;;;;;;5104981;28;20236;-78
2021/12/26 01:02:54;;;;;;;9.97;9.67;;;0.50;99.90;;;;;;5106567;28;20237;-79
2021/12/26 01:05:26;;;;;;;9.90;9.60;;;0.60;99.90;;;;;;5105800;28;20226;-79
2021/12/26 01:07:59;;;;;;;9.80;9.50;;;0.60;99.90;;;;;;5103447;28;20232;-78
2021/12/26 01:10:33;;;;;;;10.10;9.80;;;0.60;99.90;;;;;;5102502;28;20268;-79
2021/12/26 01:13:10;;;;;;;9.97;9.67;;;0.50;99.90;;;;;;5102841;28;20218;-79
2021/12/26 01:15:42;;;;;;;9.93;9.63;;;0.50;99.90;;;;;;5102115;28;20901;-78
2021/12/26 01:18:11;;;;;;;10.10;9.80;;;0.50;99.90;;;;;;5102981;28;20233;-79
2021/12/26 01:20:47;;;;;;;10.07;9.77;;;0.50;99.90;;;;;;5102691;28;20233;-79
2021/12/26 01:23:20;;;;;;;10.20;9.90;;;0.60;99.90;;;;;;5102335;28;20229;-78
2021/12/26 01:25:48;;;;;;;10.17;9.87;;;0.60;99.90;;;;;;5101070;28;20237;-79
2021/12/26 01:28:18;;;;;;;10.03;9.73;;;0.60;99.90;;;;;;5103699;28;20232;-79
2021/12/26 01:30:46;;;;;;;10.00;9.70;;;0.60;99.90;;;;;;5109413;28;20252;-78
2021/12/26 01:33:16;;;;;;;10.00;9.70;;;0.50;99.90;;;;;;5113517;28;20229;-78
2021/12/26 01:35:46;;;;;;;9.97;9.67;;;0.60;99.90;;;;;;5112056;28;20240;-78
2021/12/26 01:38:16;;;;;;;9.90;9.60;;;0.60;99.90;;;;;;5105255;28;20283;-78
2021/12/26 01:40:48;;;;;;;9.83;9.53;;;0.50;99.90;;;;;;5103102;28;20229;-79
2021/12/26 01:43:16;;;;;;;9.90;9.60;;;0.50;99.90;;;;;;5102893;28;20248;-79
2021/12/26 01:45:45;;;;;;;10.17;9.87;;;0.40;99.90;;;;;;5101098;28;20294;-79
2021/12/26 01:48:13;;;;;;;10.00;9.70;;;0.30;99.90;;;;;;5102022;28;20230;-78
2021/12/26 01:50:43;;;;;;;10.13;9.83;;;0.30;99.90;;;;;;5101775;28;20240;-79
2021/12/26 01:53:15;;;;;;;9.93;9.63;;;0.40;99.90;;;;;;5100880;28;20218;-79
2021/12/26 01:55:46;;;;;;;10.30;10.00;;;0.40;99.90;;;;;;5101200;28;20225;-80
2021/12/26 01:58:18;;;;;;;10.00;9.70;;;0.40;99.90;;;;;;5102222;28;20240;-79
2021/12/26 02:00:50;;;;;;;9.83;9.53;;;0.50;99.90;;;;;;5100578;28;20259;-78
2021/12/26 02:03:18;;;;;;;9.87;9.57;;;0.50;99.90;;;;;;5100964;28;20233;-79
2021/12/26 02:05:46;;;;;;;10.10;9.80;;;0.40;99.90;;;;;;5100849;28;20302;-79
2021/12/26 02:08:15;;;;;;;9.87;9.57;;;0.50;99.90;;;;;;5102816;28;20229;-79
2021/12/26 02:10:44;;;;;;;10.10;9.80;;;0.50;99.90;;;;;;5103797;28;20267;-79
2021/12/26 02:13:13;;;;;;;10.00;9.70;;;0.50;99.90;;;;;;5104488;28;20264;-78
2021/12/26 02:15:41;;;;;;;10.10;9.80;;;0.40;99.90;;;;;;5103131;28;20225;-79
2021/12/26 02:18:10;;;;;;;9.97;9.67;;;0.40;99.90;;;;;;5104704;28;20226;-79
2021/12/26 02:20:53;;;;;;;10.23;9.93;;;0.40;99.90;;;;;;5103669;28;20242;-79
2021/12/26 02:23:26;;;;;;;10.10;9.80;;;0.30;99.90;;;;;;5104557;28;20236;-78
2021/12/26 02:28:41;;;;;;;10.33;10.03;;;0.30;99.90;;;;;;5110027;28;20668;-78
2021/12/26 02:31:11;;;;;;;10.17;9.87;;;0.30;99.90;;;;;;5104518;28;20237;-79
2021/12/26 02:33:42;;;;;;;10.30;10.00;;;0.30;99.90;;;;;;5103606;28;20263;-79
2021/12/26 02:36:13;;;;;;;10.40;10.10;;;0.30;99.90;;;;;;5103569;28;20239;-79
2021/12/26 02:38:41;;;;;;;10.20;9.90;;;0.30;99.90;;;;;;5103958;28;20268;-78
2021/12/26 02:41:10;;;;;;;10.10;9.80;;;0.30;99.90;;;;;;5103373;28;20263;-79
2021/12/26 02:43:38;;;;;;;10.50;10.20;;;0.30;99.90;;;;;;5103436;28;20225;-79
2021/12/26 02:46:07;;;;;;;10.07;9.77;;;0.30;99.90;;;;;;5103336;28;20225;-78
2021/12/26 02:48:39;;;;;;;10.40;10.10;;;0.30;99.90;;;;;;5103561;28;20233;-79
2021/12/26 02:51:08;;;;;;;10.07;9.77;;;0.30;99.90;;;;;;5102773;28;20245;-79
2021/12/26 02:53:40;;;;;;;10.40;10.10;;;0.20;99.90;;;;;;5102596;28;20234;-79
2021/12/26 02:56:08;;;;;;;10.20;9.90;;;0.20;99.90;;;;;;5102746;28;20230;-79
2021/12/26 02:58:35;;;;;;;10.13;9.83;;;0.30;99.90;;;;;;5102682;28;20700;-78
2021/12/26 03:01:08;;;;;;;10.33;10.03;;;0.30;99.90;;;;;;5102927;28;20245;-78
2021/12/26 03:03:37;;;;;;;10.27;9.97;;;0.30;99.90;;;;;;5103835;28;20673;-77
2021/12/26 03:06:15;;;;;;;10.20;9.90;;;0.30;99.90;;;;;;5107311;28;20801;-79
2021/12/26 03:08:46;;;;;;;10.13;9.83;;;0.30;99.90;;;;;;5105274;28;20240;-78
2021/12/26 03:11:14;;;;;;;10.10;9.80;;;0.40;99.90;;;;;;5103363;28;20245;-79
2021/12/26 03:13:43;;;;;;;10.20;9.90;;;0.30;99.90;;;;;;5103076;28;20252;-78
2021/12/26 03:16:12;;;;;;;10.10;9.80;;;0.30;99.90;;;;;;5102566;28;20288;-79
2021/12/26 03:18:40;;;;;;;10.20;9.90;;;0.30;99.90;;;;;;5101646;28;20737;-79
2021/12/26 03:21:08;;;;;;;10.27;9.97;;;0.20;99.90;;;;;;5101264;28;20241;-79
2021/12/26 03:23:36;;;;;;;10.30;10.00;;;0.20;99.90;;;;;;5101835;28;21008;-78
2021/12/26 03:26:14;;;;;;;10.13;9.83;;;0.20;99.90;;;;;;5102878;28;20234;-78
2021/12/26 03:28:42;;;;;;;10.10;9.80;;;0.10;99.90;;;;;;5102103;28;20232;-78
2021/12/26 03:31:11;;;;;;;10.10;9.80;;;0.10;99.90;;;;;;5102338;28;20317;-79
2021/12/26 03:33:40;;;;;;;10.20;9.90;;;0.00;99.90;;;;;;5102044;28;20753;-79
2021/12/26 03:36:08;;;;;;;10.27;9.97;;;0.00;99.90;;;;;;5102029;28;20237;-78
2021/12/26 03:38:37;;;;;;;10.30;10.00;;;0.00;99.90;;;;;;5101918;28;20799;-79
2021/12/26 03:41:07;;;;;;;10.30;10.00;;;0.00;99.90;;;;;;5100925;28;20233;-79
2021/12/26 03:43:35;;;;;;;10.23;9.93;;;0.00;99.90;;;;;;5101638;28;20229;-78
2021/12/26 03:46:04;;;;;;;10.30;10.00;;;0.00;99.90;;;;;;5101449;28;20255;-79
2021/12/26 03:48:32;;;;;;;10.43;10.13;;;-0.10;99.90;;;;;;5101927;28;20303;-78
2021/12/26 03:51:02;;;;;;;10.07;9.77;;;0.00;99.90;;;;;;5101289;28;20291;-78
2021/12/26 03:53:29;;;;;;;10.40;10.10;;;0.00;99.90;;;;;;5101411;28;20228;-79
2021/12/26 03:55:58;;;;;;;10.57;10.27;;;0.00;99.90;;;;;;5101586;28;20212;-78
2021/12/26 03:58:28;;;;;;;10.40;10.10;;;0.00;99.90;;;;;;5068485;28;20308;-78
2021/12/26 04:00:56;;;;;;;10.40;10.10;;;0.10;99.90;;;;;;5080412;28;20245;-78
2021/12/26 04:03:25;;;;;;;10.33;10.03;;;0.10;99.90;;;;;;5089998;28;21091;-78
2021/12/26 04:05:55;;;;;;;10.53;10.23;;;0.20;99.90;;;;;;5101774;28;20220;-79
2021/12/26 04:08:23;;;;;;;10.17;9.87;;;0.30;99.90;;;;;;5100957;28;20283;-79
2021/12/26 04:10:51;;;;;;;10.30;10.00;;;0.30;99.90;;;;;;5101507;28;20237;-79
2021/12/26 04:13:19;;;;;;;10.10;9.80;;;0.40;99.90;;;;;;5101413;28;20256;-78
2021/12/26 04:15:48;;;;;;;10.53;10.23;;;0.40;99.90;;;;;;5101452;28;20319;-78
2021/12/26 04:18:16;;;;;;;10.50;10.20;;;0.40;99.90;;;;;;5101342;28;20280;-79
2021/12/26 04:20:45;;;;;;;10.10;9.80;;;0.50;99.90;;;;;;5101104;28;20230;-78
2021/12/26 04:23:14;;;;;;;10.00;9.70;;;0.50;99.90;;;;;;5100838;28;20283;-78
2021/12/26 04:25:42;;;;;;;10.30;10.00;;;0.40;99.90;;;;;;5101020;28;20260;-78
2021/12/26 04:28:11;;;;;;;10.30;10.00;;;0.40;99.90;;;;;;5101350;28;20237;-78
2021/12/26 04:30:39;;;;;;;10.30;10.00;;;0.40;99.90;;;;;;5100807;28;20237;-79
2021/12/26 04:33:10;;;;;;;10.23;9.93;;;0.50;99.90;;;;;;5100905;28;20233;-79
2021/12/26 04:35:38;;;;;;;9.90;9.60;;;0.50;99.90;;;;;;5102054;28;20240;-78
2021/12/26 04:38:06;;;;;;;10.23;9.93;;;0.60;99.90;;;;;;5101907;28;20294;-78
2021/12/26 04:40:35;;;;;;;10.07;9.77;;;0.70;99.90;;;;;;5101446;28;20233;-79
2021/12/26 04:43:04;;;;;;;10.40;10.10;;;0.60;99.90;;;;;;5101488;28;20248;-79
2021/12/26 04:45:32;;;;;;;10.10;9.80;;;0.70;99.90;;;;;;5101679;28;20283;-77
2021/12/26 04:48:01;;;;;;;10.00;9.70;;;0.70;99.90;;;;;;5102186;28;21019;-77
2021/12/26 04:50:34;;;;;;;10.03;9.73;;;0.80;99.90;;;;;;5105561;28;20270;-79
2021/12/26 04:53:02;;;;;;;10.00;9.70;;;0.90;99.90;;;;;;5103678;28;20229;-79
2021/12/26 04:55:31;;;;;;;9.97;9.67;;;0.90;99.90;;;;;;5101415;28;20217;-79
2021/12/26 04:57:59;;;;;;;9.90;9.60;;;0.90;99.90;;;;;;5101812;28;20295;-79
2021/12/26 05:00:31;;;;;;;10.20;9.90;;;0.90;99.90;;;;;;5100336;28;20245;-79
2021/12/26 05:03:04;;;;;;;10.07;9.77;;;0.90;99.90;;;;;;5101116;28;20222;-78
2021/12/26 05:05:34;;;;;;;10.03;9.73;;;0.80;99.90;;;;;;5100473;28;20233;-78
2021/12/26 05:08:02;;;;;;;10.03;9.73;;;0.70;99.90;;;;;;5101484;28;20278;-79
2021/12/26 05:10:31;;;;;;;10.20;9.90;;;0.70;99.90;;;;;;5115376;27;20263;-77
2021/12/26 05:13:01;;;;;;;10.30;10.00;;;0.70;99.90;;;;;;5109966;27;20280;-78
2021/12/26 05:15:30;;;;;;;10.03;9.73;;;0.70;99.90;;;;;;5119876;27;20221;-76
2021/12/26 05:17:59;;;;;;;10.00;9.70;;;0.80;99.90;;;;;;5114236;27;20205;-77
2021/12/26 05:20:29;;;;;;;10.13;9.83;;;0.80;99.90;;;;;;5121435;27;20218;-77
2021/12/26 05:23:00;;;;;;;10.30;10.00;;;0.90;99.90;;;;;;5121431;27;20236;-75
2021/12/26 05:25:30;;;;;;;10.07;9.77;;;0.90;99.90;;;;;;5120884;27;20232;-76
2021/12/26 05:27:58;;;;;;;10.37;10.07;;;0.90;99.90;;;;;;5121155;27;20308;-76
2021/12/26 05:30:30;;;;;;;10.33;10.03;;;0.80;99.90;;;;;;5121006;27;20232;-77
2021/12/26 05:32:59;;;;;;;10.23;9.93;;;0.60;99.90;;;;;;5120629;27;20229;-76
2021/12/26 05:35:27;;;;;;;10.03;9.73;;;0.50;99.90;;;;;;5120367;27;20205;-77
2021/12/26 05:37:56;;;;;;;10.27;9.97;;;0.60;99.90;;;;;;5080984;27;20290;-77
2021/12/26 05:40:26;;;;;;;10.50;10.20;;;0.60;99.90;;;;;;5076920;27;20239;-78
2021/12/26 05:42:54;;;;;;;10.33;10.03;;;0.60;99.90;;;;;;5075243;28;20221;-78
2021/12/26 05:45:23;;;;;;;10.30;10.00;;;0.70;99.90;;;;;;5073479;28;20246;-77
2021/12/26 05:47:51;;;;;;;10.30;10.00;;;0.70;99.90;;;;;;5069881;28;20231;-79
2021/12/26 05:50:23;;;;;;;10.30;10.00;;;0.70;99.90;;;;;;5070592;28;20226;-79
2021/12/26 05:52:51;;;;;;;10.13;9.83;;;0.60;99.90;;;;;;5071664;28;20226;-78
2021/12/26 05:55:20;;;;;;;10.20;9.90;;;0.70;99.90;;;;;;5065853;28;20219;-78
2021/12/26 05:57:49;;;;;;;10.10;9.80;;;0.60;99.90;;;;;;5064414;28;20259;-78
2021/12/26 06:00:19;;;;;;;9.90;9.60;;;0.60;99.90;;;;;;5063651;28;20230;-78
2021/12/26 06:02:50;;;;;;;10.13;9.83;;;0.50;99.90;;;;;;5106209;22;20716;-82
2021/12/26 06:05:18;;;;;;;10.27;9.97;;;0.50;99.90;;;;;;5075225;28;20234;-82
2021/12/26 06:07:46;;;;;;;10.27;9.97;;;0.60;99.90;;;;;;5071930;28;20239;-83
2021/12/26 06:10:14;;;;;;;10.20;9.90;;;0.60;99.90;;;;;;5063444;28;20261;-83
2021/12/26 06:12:42;;;;;;;9.93;9.63;;;0.70;99.90;;;;;;5062213;28;20227;-83
2021/12/26 06:15:12;;;;;;;9.93;9.63;;;0.60;99.90;;;;;;5063354;28;20281;-82
2021/12/26 06:17:40;;;;;;;10.20;9.90;;;0.60;99.90;;;;;;5064477;28;20237;-84
2021/12/26 06:20:14;;;;;;;10.20;9.90;;;0.60;99.90;;;;;;5065444;28;20288;-83
2021/12/26 06:22:42;;;;;;;9.80;9.50;;;0.60;99.90;;;;;;5079331;28;20223;-82
2021/12/26 06:25:11;;;;;;;10.13;9.83;;;0.60;99.90;;;;;;5080042;28;20214;-82
2021/12/26 06:27:38;;;;;;;10.13;9.83;;;0.70;99.90;;;;;;5076628;28;20231;-83
2021/12/26 06:30:09;;;;;;;10.10;9.80;;;0.70;99.90;;;;;;5075394;28;20375;-82
2021/12/26 06:32:38;;;;;;;10.10;9.80;;;0.80;99.90;;;;;;5084847;28;20238;-83
2021/12/26 06:35:08;;;;;;;9.97;9.67;;;0.70;99.90;;;;;;5088552;28;20214;-83
2021/12/26 06:37:36;;;;;;;10.37;10.07;;;0.70;99.90;;;;;;5091200;28;20237;-82
2021/12/26 06:40:06;;;;;;;10.13;9.83;;;0.70;99.90;;;;;;5093042;28;20257;-83
2021/12/26 06:42:39;;;;;;;10.10;9.80;;;0.80;99.90;;;;;;5092328;28;20238;-83
2021/12/26 06:45:08;;;;;;;10.27;9.97;;;0.80;99.90;;;;;;5089087;28;20309;-83
2021/12/26 06:47:38;;;;;;;10.10;9.80;;;0.90;99.90;;;;;;5094784;28;20260;-83
2021/12/26 06:50:07;;;;;;;10.23;9.93;;;1.00;99.90;;;;;;5086894;28;20775;-83
2021/12/26 06:52:35;;;;;;;10.20;9.90;;;1.00;99.90;;;;;;5085562;28;20234;-83
2021/12/26 06:55:04;;;;;;;10.03;9.73;;;1.00;99.90;;;;;;5084708;28;20244;-83
2021/12/26 06:57:31;;;;;;;10.23;9.93;;;1.10;99.90;;;;;;5086723;28;20230;-82
2021/12/26 06:59:59;;;;;;;9.90;9.60;;;1.20;99.90;;;;;;5091438;28;20230;-84
2021/12/26 07:02:27;;;;;;;9.97;9.67;;;1.30;99.90;;;;;;5092008;28;20234;-83
2021/12/26 07:04:56;;;;;;;10.20;9.90;;;1.30;99.90;;;;;;5092467;28;20280;-83
2021/12/26 07:07:24;;;;;;;10.40;10.10;;;1.30;99.90;;;;;;5087113;28;20233;-83
2021/12/26 07:09:52;;;;;;;10.13;9.83;;;1.40;99.90;;;;;;5086378;28;20230;-82
2021/12/26 07:12:20;;;;;;;10.23;9.93;;;1.30;99.90;;;;;;5085771;28;20261;-83
2021/12/26 07:14:47;;;;;;;10.40;10.10;;;1.20;99.90;;;;;;5085833;28;20233;-83
2021/12/26 07:17:15;;;;;;;10.20;9.90;;;1.20;99.90;;;;;;5086443;28;20230;-83
2021/12/26 07:19:43;;;;;;;10.17;9.87;;;1.30;99.90;;;;;;5086720;28;20241;-83
2021/12/26 07:22:12;;;;;;;10.33;10.03;;;1.30;99.90;;;;;;5092292;27;20226;-83
2021/12/26 07:24:43;;;;;;;10.33;10.03;;;1.40;99.90;;;;;;5082087;28;20219;-83
2021/12/26 07:27:11;;;;;;;10.17;9.87;;;1.40;99.90;;;;;;5076650;28;20226;-83
2021/12/26 07:29:40;;;;;;;10.30;10.00;;;1.40;99.90;;;;;;5085277;28;20344;-82
2021/12/26 07:32:09;;;;;;;10.10;9.80;;;1.40;99.90;;;;;;5065973;28;20231;-83
2021/12/26 07:34:37;;;;;;;10.17;9.87;;;1.40;99.90;;;;;;5066102;28;20219;-83
2021/12/26 07:37:05;;;;;;;10.20;9.90;;;1.50;99.90;;;;;;5066156;28;20269;-82
2021/12/26 07:39:35;;;;;;;10.10;9.80;;;1.50;99.90;;;;;;5063158;28;20257;-82
2021/12/26 07:42:03;;;;;;;10.23;9.93;;;1.50;99.90;;;;;;5064591;28;20242;-83
2021/12/26 07:44:31;;;;;;;10.50;10.20;;;1.40;99.90;;;;;;5064697;28;20222;-84
2021/12/26 07:46:59;;;;;;;10.30;10.00;;;1.30;99.90;;;;;;5064668;28;20250;-84
2021/12/26 07:49:27;;;;;;;10.27;9.98;;;1.30;99.90;;;;;;5063503;28;20387;-85
2021/12/26 07:51:56;;;;;;;11.00;10.70;;;1.30;99.90;;;;;;5062889;28;20425;-78
2021/12/26 07:54:25;;;;;;;10.40;10.10;;;1.50;99.90;;;;;;5060684;28;20235;-77
2021/12/26 07:56:57;;;;;;;9.90;9.60;;;1.70;99.90;;;;;;5061730;28;20285;-85
2021/12/26 07:59:25;;;;;;;9.80;9.50;;;1.90;99.90;;;;;;5060859;28;20538;-86
2021/12/26 08:01:52;;;;;;;9.77;9.47;;;2.00;99.90;;;;;;5059467;28;20243;-86
2021/12/26 08:04:25;;;;;;;9.70;9.40;;;2.10;99.90;;;;;;5072033;28;20276;-86
2021/12/26 08:06:53;;;;;;;9.77;9.47;;;2.10;99.90;;;;;;5081720;28;20222;-85
2021/12/26 08:09:21;;;;;;;9.50;9.20;;;2.00;99.90;;;;;;5082798;28;20321;-82
2021/12/26 08:11:49;;;;;;;9.67;9.37;;;2.00;99.90;;;;;;5085394;28;20296;-81
2021/12/26 08:14:19;;;;;;;9.67;9.37;;;2.00;99.90;;;;;;5078376;28;20285;-81
2021/12/26 08:16:48;;;;;;;9.98;9.68;;;2.10;99.90;;;;;;5063970;28;20429;-81
2021/12/26 08:19:15;;;;;;;9.70;9.40;;;2.10;99.90;;;;;;5066484;28;20255;-81
2021/12/26 08:21:43;;;;;;;9.70;9.40;;;2.10;99.90;;;;;;5066182;28;20297;-82
2021/12/26 08:24:11;;;;;;;9.80;9.50;;;2.00;99.90;;;;;;5067461;28;20226;-81
2021/12/26 08:26:39;;;;;;;9.80;9.50;;;2.00;99.90;;;;;;5085724;28;20237;-85
2021/12/26 08:29:06;;;;;;;9.67;9.37;;;2.00;99.90;;;;;;5077876;28;20242;-82
2021/12/26 08:31:36;;;;;;;9.70;9.40;;;2.10;99.90;;;;;;5084970;28;20249;-82
2021/12/26 08:34:04;;;;;;;9.70;9.40;;;2.10;99.90;;;;;;5086217;28;20214;-82
2021/12/26 08:36:31;;;;;;;9.73;9.43;;;2.00;99.90;;;;;;5088594;28;20285;-82
2021/12/26 08:39:03;;;;;;;9.63;9.33;;;2.00;99.90;;;;;;5085516;28;20372;-84
2021/12/26 08:41:31;;;;;;;9.53;9.23;;;2.00;99.90;;;;;;5080956;28;20264;-84
2021/12/26 08:43:59;;;;;;;10.00;9.70;;;1.90;99.90;;;;;;5081097;28;20225;-84
2021/12/26 08:46:27;;;;;;;10.10;9.80;;;1.90;99.90;;;;;;5080646;28;20228;-84
2021/12/26 08:48:56;;;;;;;10.00;9.70;;;1.80;99.90;;;;;;5081700;28;20242;-84
2021/12/26 08:51:24;;;;;;;10.10;9.80;;;1.80;99.90;;;;;;5081784;28;20233;-87
2021/12/26 08:53:52;;;;;;;10.40;10.10;;;1.80;99.90;;;;;;5068396;28;20243;-84
2021/12/26 08:56:19;;;;;;;10.03;9.73;;;1.80;99.90;;;;;;5076857;28;20261;-83
2021/12/26 08:58:47;;;;;;;9.90;9.60;;;1.90;99.90;;;;;;5080540;28;20238;-84
2021/12/26 09:01:15;;;;;;;9.83;9.53;;;1.90;99.90;;;;;;5064982;28;20221;-83
2021/12/26 09:03:43;;;;;;;10.00;9.70;;;1.90;99.90;;;;;;5083957;28;20262;-83
2021/12/26 09:06:12;;;;;;;10.00;9.70;;;1.90;99.90;;;;;;5077911;28;20385;-84
2021/12/26 09:08:40;;;;;;;10.03;9.73;;;1.90;99.90;;;;;;5081383;28;20268;-84
2021/12/26 09:11:08;;;;;;;10.23;9.93;;;1.90;99.90;;;;;;5082744;28;20222;-84
2021/12/26 09:13:36;;;;;;;10.07;9.77;;;1.80;99.90;;;;;;5080052;28;20226;-83
2021/12/26 09:16:05;;;;;;;10.03;9.73;;;1.80;99.90;;;;;;5081282;28;20244;-84
2021/12/26 09:18:33;;;;;;;10.07;9.77;;;1.80;99.90;;;;;;5080411;28;20229;-85
2021/12/26 09:21:01;;;;;;;10.20;9.90;;;1.80;99.90;;;;;;5077300;28;20702;-85
2021/12/26 09:23:30;;;;;;;9.97;9.67;;;1.90;99.90;;;;;;5070924;28;20222;-84
2021/12/26 09:25:58;;;;;;;10.17;9.87;;;2.00;99.90;;;;;;5082730;28;20288;-85
2021/12/26 09:28:28;;;;;;;9.70;9.40;;;2.10;99.90;;;;;;5081581;28;20238;-84
2021/12/26 09:30:56;;;;;;;9.90;9.60;;;2.20;99.90;;;;;;5080718;28;20284;-85
2021/12/26 09:33:24;;;;;;;10.13;9.83;;;2.20;99.90;;;;;;5082074;28;20229;-84
2021/12/26 09:35:52;;;;;;;9.90;9.60;;;2.40;99.90;;;;;;5079599;28;20230;-85
2021/12/26 09:38:20;;;;;;;9.93;9.63;;;2.30;99.90;;;;;;5080685;28;20239;-85
2021/12/26 09:40:49;;;;;;;10.13;9.83;;;2.20;99.90;;;;;;5080223;28;20230;-84
2021/12/26 09:43:17;;;;;;;9.93;9.63;;;2.20;99.90;;;;;;5080206;28;20238;-84
2021/12/26 09:45:46;;;;;;;10.13;9.83;;;2.30;99.90;;;;;;5081136;28;20238;-84
2021/12/26 09:48:14;;;;;;;9.73;9.43;;;2.30;99.90;;;;;;5080371;28;20264;-85
2021/12/26 09:50:42;;;;;;;9.70;9.40;;;2.30;99.90;;;;;;5080910;28;20222;-84
2021/12/26 09:53:11;;;;;;;10.00;9.70;;;2.20;99.90;;;;;;5080489;28;20239;-84
2021/12/26 09:55:39;;;;;;;9.93;9.63;;;2.20;99.90;;;;;;5080574;28;20296;-84
2021/12/26 09:58:08;;;;;;;10.20;9.90;;;2.20;99.90;;;;;;5081207;28;20281;-84
2021/12/26 10:00:40;;;;;;;9.90;9.60;;;2.10;99.90;;;;;;5082462;28;20236;-85
2021/12/26 10:03:22;;;;;;;10.30;10.00;;;2.10;99.90;;;;;;5080111;28;20222;-86
2021/12/26 10:06:00;;;;;;;9.90;9.60;;;2.20;99.90;;;;;;5079943;28;20229;-86
2021/12/26 10:08:29;;;;;;;10.10;9.80;;;2.20;99.90;;;;;;5087266;28;20265;-84
2021/12/26 10:11:18;;;;;;;9.90;9.60;;;2.30;99.90;;;;;;5095613;27;20264;-83
2021/12/26 10:13:49;;;;;;;10.00;9.70;;;2.40;99.90;;;;;;5091552;28;20281;-84
2021/12/26 10:16:20;;;;;;;9.90;9.60;;;2.40;99.90;;;;;;5086686;28;20288;-85
2021/12/26 10:18:48;;;;;;;10.00;9.70;;;2.40;99.90;;;;;;5081724;28;20749;-85
2021/12/26 10:21:36;;;;;;;10.20;9.90;;;2.40;99.90;;;;;;5080044;28;20238;-84
2021/12/26 10:24:17;;;;;;;10.10;9.80;;;2.30;99.90;;;;;;5082194;28;20241;-86
2021/12/26 10:26:48;;;;;;;10.10;9.80;;;2.30;99.90;;;;;;5083324;28;20229;-84
2021/12/26 10:29:25;;;;;;;9.93;9.63;;;2.20;99.90;;;;;;5084733;28;20222;-83
2021/12/26 10:32:01;;;;;;;10.00;9.70;;;2.30;99.90;;;;;;5086381;28;20233;-85
2021/12/26 10:34:34;;;;;;;9.83;9.53;;;2.20;99.90;;;;;;5085293;28;20275;-84
2021/12/26 10:37:05;;;;;;;9.97;9.67;;;2.20;99.90;;;;;;5087321;28;20238;-83
2021/12/26 10:39:40;;;;;;;9.80;9.50;;;2.40;99.90;;;;;;5088341;28;20218;-87
2021/12/26 10:42:12;;;;;;;9.87;9.57;;;2.40;99.90;;;;;;5087633;28;20252;-84
2021/12/26 10:44:45;;;;;;;9.77;9.47;;;2.40;99.90;;;;;;5087604;28;20246;-84
2021/12/26 10:47:16;;;;;;;9.50;9.20;;;2.50;99.90;;;;;;5088171;28;20234;-84
2021/12/26 10:49:53;;;;;;;9.70;9.40;;;2.50;99.90;;;;;;5087168;28;20242;-84
2021/12/26 10:52:25;;;;;;;9.80;9.50;;;2.40;99.90;;;;;;5087144;28;20245;-86
2021/12/26 10:55:00;;;;;;;9.50;9.20;;;2.40;99.90;;;;;;5086223;28;20241;-83
2021/12/26 10:57:36;;;;;;;9.60;9.30;;;2.40;99.90;;;;;;5089600;28;20221;-83
2021/12/26 11:00:15;;;;;;;9.90;9.60;;;2.30;99.90;;;;;;5089669;28;20226;-85
2021/12/26 11:02:46;;;;;;;9.50;9.20;;;2.50;99.90;;;;;;5089737;28;20230;-83
2021/12/26 11:05:17;;;;;;;9.67;9.37;;;2.40;99.90;;;;;;5087278;28;20226;-84
2021/12/26 11:07:49;;;;;;;9.53;9.23;;;2.30;99.90;;;;;;5090277;28;20230;-83
2021/12/26 11:10:23;;;;;;;9.67;9.37;;;2.30;99.90;;;;;;5088386;28;20247;-84
2021/12/26 11:12:55;;;;;;;9.53;9.23;;;2.30;99.90;;;;;;5087260;28;20245;-83
2021/12/26 11:15:27;;;;;;;9.47;9.17;;;2.30;99.90;;;;;;5087797;28;20276;-83
2021/12/26 11:17:58;;;;;;;9.63;9.33;;;2.30;99.90;;;;;;5089938;28;20230;-84
2021/12/26 11:20:31;;;;;;;9.63;9.33;;;2.30;99.90;;;;;;5090003;28;20347;-83
2021/12/26 11:23:09;;;;;;;9.33;9.03;;;2.30;99.90;;;;;;5074813;28;20262;-83
2021/12/26 11:25:39;;;;;;;9.77;9.47;;;2.30;99.90;;;;;;5086244;28;20229;-84
2021/12/26 11:28:07;;;;;;;9.70;9.40;;;2.30;99.90;;;;;;5087096;28;20249;-83
2021/12/26 11:30:37;;;;;;;9.60;9.30;;;2.40;99.90;;;;;;5089019;28;20238;-84
2021/12/26 11:33:05;;;;;;;9.40;9.10;;;2.40;99.90;;;;;;5091502;28;20258;-85
2021/12/26 11:35:34;;;;;;;9.73;9.43;;;2.40;99.90;;;;;;5089442;28;20230;-83
2021/12/26 11:38:03;;;;;;;9.80;9.50;;;2.40;99.90;;;;;;5090350;28;20238;-83
2021/12/26 11:40:32;;;;;;;9.90;9.60;;;2.40;99.90;;;;;;5091003;28;20230;-84
2021/12/26 11:43:48;;;;;;;9.80;9.50;;;2.40;99.90;;;;;;5088583;28;20226;-84
2021/12/26 11:46:47;;;;;;;9.90;9.60;;;2.40;99.90;;;;;;5082307;28;20218;-84
2021/12/26 11:49:39;;;;;;;9.73;9.43;;;2.40;99.90;;;;;;5089471;28;20320;-84
2021/12/26 11:52:31;;;;;;;9.83;9.53;;;2.50;99.90;;;;;;5088075;28;21115;-84
2021/12/26 11:55:11;;;;;;;9.80;9.50;;;2.50;99.90;;;;;;5087280;28;20230;-84
2021/12/26 11:58:24;;;;;;;9.60;9.30;;;2.50;99.90;;;;;;5087390;28;20233;-84
2021/12/26 12:00:54;;;;;;;9.40;9.10;;;2.40;99.90;;;;;;5080735;28;20238;-84
2021/12/26 12:03:25;;;;;;;9.40;9.10;;;2.40;99.90;;;;;;5115045;22;20264;-82
2021/12/26 12:05:55;;;;;;;9.60;9.30;;;2.40;99.90;;;;;;5078002;28;20276;-80
2021/12/26 12:08:30;;;;;;;9.47;9.17;;;2.40;99.90;;;;;;5078045;28;20249;-79
2021/12/26 12:11:10;;;;;;;9.40;9.10;;;2.40;99.90;;;;;;5078504;28;20222;-80
2021/12/26 12:13:53;;;;;;;9.50;9.20;;;2.40;99.90;;;;;;5078431;28;20242;-80
2021/12/26 12:16:35;;;;;;;9.50;9.20;;;2.40;99.90;;;;;;5080468;28;20222;-79
2021/12/26 12:19:11;;;;;;;9.50;9.20;;;2.50;99.90;;;;;;5083737;28;20329;-78
2021/12/26 12:21:44;;;;;;;9.30;9.00;;;2.50;99.90;;;;;;5084139;28;20236;-79
2021/12/26 12:24:14;;;;;;;9.40;9.10;;;2.60;99.90;;;;;;5081483;28;20362;-78
2021/12/26 12:26:49;;;;;;;9.60;9.30;;;2.60;99.90;;;;;;5078451;28;20232;-80
2021/12/26 12:29:50;;;;;;;8.93;8.67;;;2.60;99.90;;;;;;5086749;27;20326;-80
2021/12/26 12:32:21;;;;;;;9.30;9.00;;;2.60;99.90;;;;;;5076836;28;20241;-80
2021/12/26 12:34:57;;;;;;;9.67;9.37;;;2.60;99.90;;;;;;5077478;28;20269;-80
2021/12/26 12:37:40;;;;;;;9.70;9.40;;;2.60;99.90;;;;;;5077425;28;20311;-80
2021/12/26 12:40:20;;;;;;;9.53;9.23;;;2.60;99.90;;;;;;5077286;28;20297;-80
2021/12/26 12:43:06;;;;;;;9.90;9.60;;;2.70;99.90;;;;;;5077337;28;20241;-81
2021/12/26 12:46:06;;;;;;;9.43;9.13;;;2.70;99.90;;;;;;5077443;28;20233;-80
2021/12/26 12:48:40;;;;;;;9.20;8.90;;;2.80;99.90;;;;;;5068371;28;20258;-79
2021/12/26 12:51:42;;;;;;;9.50;9.20;;;2.80;99.90;;;;;;5064454;28;20320;-79
2021/12/26 12:54:30;;;;;;;9.47;9.17;;;2.80;99.90;;;;;;5073701;28;20287;-78
2021/12/26 12:57:00;;;;;;;9.03;8.73;;;2.70;99.90;;;;;;4885791;28;20239;-82
2021/12/26 12:59:45;;;;;;;9.40;9.10;;;2.70;99.90;;;;;;5047188;28;20235;-80
2021/12/26 13:02:34;;;;;;;9.13;8.83;;;2.70;99.90;;;;;;5042408;28;20375;-78
2021/12/26 13:05:02;;;;;;;9.40;9.10;;;2.70;99.90;;;;;;5042710;28;20321;-80
2021/12/26 13:07:32;;;;;;;9.20;8.90;;;2.70;99.90;;;;;;5043726;28;20242;-79
2021/12/26 13:10:10;;;;;;;9.10;8.80;;;2.70;99.90;;;;;;5041492;28;20227;-80
2021/12/26 13:12:38;;;;;;;9.33;9.03;;;2.70;99.90;;;;;;5041761;28;20235;-79